Aeroboteco Virtual Airlines! Uma nuvem a frente.



 INFORMAÇÕES METEOROLÓGICAS
METAR FOR LTAJ
ADDS - METARS form results

(1204 UTC 17 February 2019)
Data provider http://aviationweather.gov/metar/data/
 
METAR text: LTAJ 171150Z 17004KT 130V200 9999 SCT040 BKN100 10/04 Q1018 NOSIG RMK RWY10 21003KT 120V270
Conditions at: LTAJ (GAZIANTEP , TR) observed 1150 UTC 17 February 2019
Temperature: 10.0°C (50°F)
Dewpoint: 4.0°C (39°F) [RH = 66%]
Pressure (altimeter): 30.06 inches Hg (1018.0 mb)
Winds: from the S (170 degrees) at 5 MPH (4 knots; 2.1 m/s)
Visibility: 6 or more miles (10+ km)
Ceiling: 10000 feet AGL
Clouds: scattered clouds at 4000 feet AGL
broken clouds at 10000 feet AGL
Weather: no significant weather observed at this time

METAR text: LTAJ 171120Z 16004KT 110V200 9999 SCT040 BKN100 10/04 Q1018 NOSIG RMK RWY10 21004KT 160V260
Conditions at: LTAJ (GAZIANTEP , TR) observed 1120 UTC 17 February 2019
Temperature: 10.0°C (50°F)
Dewpoint: 4.0°C (39°F) [RH = 66%]
Pressure (altimeter): 30.06 inches Hg (1018.0 mb)
Winds: from the SSE (160 degrees) at 5 MPH (4 knots; 2.1 m/s)
Visibility: 6 or more miles (10+ km)
Ceiling: 10000 feet AGL
Clouds: scattered clouds at 4000 feet AGL
broken clouds at 10000 feet AGL
Weather: no significant weather observed at this time

Forecast for: LTAJ (GAZIANTEP , TR)
Text: TAF LTAJ 171040Z 1712/1812 VRB02KT 9999 SCT040 BKN100
Forecast period: 1200 to 1500 UTC 17 February 2019
Forecast type: FROM: standard forecast or significant change
Winds: variable direction winds at 2 MPH (2 knots; 1.0 m/s)
Visibility: 6 or more miles 10+ km)
Ceiling: 10000 feet AGL
Clouds: scattered clouds at 4000 feet AGL
broken clouds at 10000 feet AGL
Weather: no significant weather forecast for this period
Text: BECMG 1715/1718 CAVOK
Forecast period: 1500 UTC 17 February 2019 to 1200 UTC 18 February 2019
Forecast type: BECOMING: Conditions expected to become as follows by 1800 UTC 17 February 2019
Winds: variable direction winds at 2 MPH (2 knots; 1.0 m/s)
Visibility: 6 or more miles 10+ km)
Ceiling: unknown
Clouds: missing
Weather: NSW  (no significant weather)

 MAPA DO AEROPORTO

 INFORMAÇÕES DA PISTA
Pista 10L Tamanho da pista 9843 ft Largura da pista 157 ft
Elevação da pista 2315 ft Ranhura da pista 427 ft Proa da pista 105
Pista 28R Tamanho da pista 9843 ft Largura da pista 157 ft
Elevação da pista 2190 ft Ranhura da pista 0 ft Proa da pista 285
Pista 10R Tamanho da pista 9842 ft Largura da pista 100 ft
Elevação da pista 2309 ft Ranhura da pista 328 ft Proa da pista 105
Pista 28L Tamanho da pista 9842 ft Largura da pista 100 ft
Elevação da pista 2215 ft Ranhura da pista 0 ft Proa da pista 285

 FREQUÊNCIAS DO AEROPORTO
Tipo APP Nome APP Frequência 120.1 MHZ
Tipo ATIS Nome Frequência 119.275 MHZ
Tipo TWR Nome TWR Frequência 120.1 MHZ

 AUXÍLIOS DE NAVEGAÇÃO PRÓXIMOS AO AEROPORTO
Tipo VOR-DME Nome Gaziantep Frequência 116700 KHZ
Tipo NDB Nome Oguzeli Frequência 432 KHZ